Time;durP1;ratioP1;P1;durP2;ratioP2;P2;SDS_P1;SDS_P2;PMS_P1;PMS_P2;Temp;Humidity;BMP_temperature;BMP_pressure;BME280_temperature;BME280_humidity;BME280_pressure;Samples;Min_cycle;Max_cycle;Signal;HPM_P1;HPM_P2
2023/06/26 00:00:41;;;;;;;8.27;7.67;;;;;;;15.84;100.00;96991.66;4925477;28;21076;-67
2023/06/26 00:03:09;;;;;;;8.57;7.87;;;;;;;15.83;100.00;96990.00;4913959;28;20305;-71
2023/06/26 00:05:36;;;;;;;8.13;7.53;;;;;;;15.84;100.00;96990.81;4951955;28;20198;-69
2023/06/26 00:08:05;;;;;;;8.73;8.03;;;;;;;15.77;100.00;96982.91;4954643;28;20211;-67
2023/06/26 00:10:35;;;;;;;8.50;7.90;;;;;;;15.70;100.00;96993.63;4927697;28;20977;-67
2023/06/26 00:13:03;;;;;;;7.57;6.97;;;;;;;15.64;100.00;96989.19;4920360;28;20325;-70
2023/06/26 00:15:31;;;;;;;8.03;7.40;;;;;;;15.52;100.00;96972.25;4918657;28;21173;-68
2023/06/26 00:17:59;;;;;;;8.70;7.97;;;;;;;15.60;100.00;96983.47;4949153;28;20284;-68
2023/06/26 00:20:26;;;;;;;8.57;7.83;;;;;;;15.56;100.00;96981.47;4910541;28;20229;-68
2023/06/26 00:22:55;;;;;;;8.13;7.63;;;;;;;15.51;100.00;96995.47;4945105;28;20298;-68
2023/06/26 00:25:22;;;;;;;9.37;8.70;;;;;;;15.47;100.00;96988.94;4922152;28;20918;-68
2023/06/26 00:27:51;;;;;;;8.53;7.77;;;;;;;15.24;100.00;96979.69;4923579;28;21500;-68
2023/06/26 00:30:19;;;;;;;8.67;8.07;;;;;;;15.17;100.00;96993.09;4951381;28;20230;-69
2023/06/26 00:32:47;;;;;;;9.30;8.40;;;;;;;15.19;100.00;96992.88;4931132;28;20264;-69
2023/06/26 00:35:15;;;;;;;8.20;7.60;;;;;;;15.08;100.00;96991.72;4914831;28;20258;-66
2023/06/26 00:37:42;;;;;;;8.70;8.10;;;;;;;15.09;100.00;96993.34;4948148;28;20229;-67
2023/06/26 00:40:10;;;;;;;7.93;7.40;;;;;;;15.01;100.00;96990.97;4940519;28;21060;-69
2023/06/26 00:42:38;;;;;;;8.67;7.90;;;;;;;15.03;100.00;96989.72;4948804;28;20908;-67
2023/06/26 00:45:07;;;;;;;9.37;8.57;;;;;;;15.01;100.00;96997.13;4911890;28;20765;-69
2023/06/26 00:47:35;;;;;;;9.10;8.40;;;;;;;14.98;100.00;97000.25;4925895;28;20212;-68
2023/06/26 00:50:03;;;;;;;9.03;8.33;;;;;;;14.98;100.00;97002.91;4914340;28;20222;-67
2023/06/26 00:52:31;;;;;;;9.17;8.50;;;;;;;14.92;100.00;96998.41;4950386;28;20254;-66
2023/06/26 00:54:59;;;;;;;8.77;8.17;;;;;;;14.90;100.00;96995.13;4927956;28;20211;-67
2023/06/26 00:57:26;;;;;;;9.70;8.97;;;;;;;14.88;100.00;96994.53;4944173;28;20191;-67
2023/06/26 00:59:54;;;;;;;8.97;8.20;;;;;;;14.83;100.00;96999.72;4927474;28;20238;-67
2023/06/26 01:02:23;;;;;;;9.40;8.50;;;;;;;14.79;100.00;96999.34;4926818;28;20253;-66
2023/06/26 01:04:52;;;;;;;9.20;8.40;;;;;;;14.81;100.00;96991.09;4919152;28;20225;-67
2023/06/26 01:07:20;;;;;;;9.73;9.03;;;;;;;14.79;100.00;96991.34;4943771;28;20234;-70
2023/06/26 01:09:49;;;;;;;9.93;9.13;;;;;;;14.76;100.00;96987.25;4931139;28;20302;-66
2023/06/26 01:12:16;;;;;;;9.07;8.37;;;;;;;14.73;100.00;96984.19;4945947;28;20230;-69
2023/06/26 01:14:44;;;;;;;9.40;8.70;;;;;;;14.71;100.00;96983.56;4919675;28;20652;-71
2023/06/26 01:17:15;;;;;;;9.20;8.50;;;;;;;14.68;100.00;96983.97;4954173;28;21913;-71
2023/06/26 01:19:44;;;;;;;8.97;8.30;;;;;;;14.67;100.00;96985.84;4891502;28;21126;-66
2023/06/26 01:22:18;;;;;;;9.70;9.00;;;;;;;14.67;100.00;96980.50;4953115;28;21751;-72
2023/06/26 01:24:54;;;;;;;8.70;8.10;;;;;;;14.65;100.00;96985.25;4946275;28;20219;-67
2023/06/26 01:27:23;;;;;;;9.60;8.80;;;;;;;14.59;100.00;96994.09;4920102;28;20273;-69
2023/06/26 01:29:52;;;;;;;10.13;9.33;;;;;;;14.54;100.00;96975.25;4952499;28;20685;-67
2023/06/26 01:32:19;;;;;;;9.50;8.80;;;;;;;14.48;100.00;96983.06;4930860;28;20316;-70
2023/06/26 01:34:47;;;;;;;9.57;8.97;;;;;;;14.42;100.00;96973.28;4930959;28;20221;-68
2023/06/26 01:37:15;;;;;;;9.30;8.60;;;;;;;14.44;100.00;96976.53;4909543;28;20226;-71
2023/06/26 01:39:42;;;;;;;9.30;8.50;;;;;;;14.40;100.00;96970.00;4955728;28;20661;-70
2023/06/26 01:42:10;;;;;;;9.63;8.93;;;;;;;14.44;100.00;96970.41;4924493;28;20234;-71
2023/06/26 01:44:45;;;;;;;8.97;8.13;;;;;;;14.38;100.00;96968.56;4941144;28;20926;-67
2023/06/26 01:47:17;;;;;;;9.90;8.90;;;;;;;14.43;100.00;96979.44;4926015;28;20729;-68
2023/06/26 01:49:51;;;;;;;9.40;8.70;;;;;;;14.38;100.00;96976.56;4949631;28;20221;-67
2023/06/26 01:52:22;;;;;;;9.83;9.10;;;;;;;14.35;100.00;96966.34;4884997;28;20236;-68
2023/06/26 01:54:55;;;;;;;9.37;8.67;;;;;;;14.29;100.00;96962.69;4951944;28;20203;-69
2023/06/26 01:57:23;;;;;;;9.60;8.73;;;;;;;14.28;100.00;96961.06;4924648;28;20209;-67
2023/06/26 01:59:54;;;;;;;9.10;8.50;;;;;;;14.18;100.00;96970.31;4943909;28;21015;-66
2023/06/26 02:02:21;;;;;;;10.00;9.30;;;;;;;14.16;100.00;96975.03;4927461;28;20242;-66
2023/06/26 02:04:49;;;;;;;10.07;9.27;;;;;;;14.11;100.00;96966.06;4954057;28;20266;-66
2023/06/26 02:07:17;;;;;;;8.90;8.30;;;;;;;14.12;100.00;96981.00;4897308;28;20353;-67
2023/06/26 02:09:45;;;;;;;9.70;8.83;;;;;;;14.09;100.00;96970.78;4941089;28;20708;-67
2023/06/26 02:12:13;;;;;;;9.50;8.80;;;;;;;14.08;100.00;96974.47;4915703;28;20230;-67
2023/06/26 02:14:40;;;;;;;10.00;9.20;;;;;;;14.05;100.00;96975.69;4936275;28;20288;-69
2023/06/26 02:17:09;;;;;;;9.60;8.90;;;;;;;13.94;100.00;96968.38;4927898;28;20300;-66
2023/06/26 02:19:39;;;;;;;10.30;9.40;;;;;;;13.97;100.00;96978.59;4947575;28;20210;-66
2023/06/26 02:22:07;;;;;;;9.87;9.07;;;;;;;13.93;100.00;96982.72;4918765;28;20237;-68
2023/06/26 02:24:34;;;;;;;9.97;9.07;;;;;;;13.93;100.00;96978.19;4912745;28;20237;-66
2023/06/26 02:27:02;;;;;;;9.60;8.70;;;;;;;13.93;100.00;96974.72;4945045;28;20301;-67
2023/06/26 02:29:30;;;;;;;9.27;8.47;;;;;;;13.97;100.00;96976.75;4917259;28;20296;-67
2023/06/26 02:31:57;;;;;;;9.93;9.13;;;;;;;13.99;100.00;96985.34;4952038;28;20246;-69
2023/06/26 02:34:26;;;;;;;9.07;8.40;;;;;;;13.97;100.00;96981.28;4923400;28;20565;-66
2023/06/26 02:36:55;;;;;;;9.73;9.00;;;;;;;13.95;100.00;96980.66;4926921;28;20858;-68
2023/06/26 02:39:22;;;;;;;8.93;8.33;;;;;;;13.95;100.00;96983.31;4913903;28;20361;-67
2023/06/26 02:41:50;;;;;;;9.70;9.00;;;;;;;13.82;100.00;96982.31;4953018;28;20310;-68
2023/06/26 02:44:18;;;;;;;10.00;9.10;;;;;;;13.69;100.00;96977.88;4948919;28;20206;-67
2023/06/26 02:46:45;;;;;;;10.53;9.63;;;;;;;13.70;100.00;96992.81;4928289;28;20202;-67
2023/06/26 02:49:13;;;;;;;10.53;9.33;;;;;;;13.65;100.00;96983.81;4933437;28;20218;-67
2023/06/26 02:51:42;;;;;;;9.33;8.63;;;;;;;13.60;100.00;96993.25;4947327;28;20886;-68
2023/06/26 02:54:10;;;;;;;9.90;9.00;;;;;;;13.55;100.00;96985.06;4922833;28;20312;-69
2023/06/26 02:56:37;;;;;;;9.83;9.03;;;;;;;13.47;100.00;96987.97;4914593;28;20306;-69
2023/06/26 02:59:14;;;;;;;11.13;10.10;;;;;;;13.47;100.00;96995.94;4952511;28;20292;-68
2023/06/26 03:01:41;;;;;;;10.63;9.73;;;;;;;13.44;100.00;96999.84;4928587;28;20230;-67
2023/06/26 03:04:10;;;;;;;11.60;10.70;;;;;;;13.49;100.00;96995.72;4957698;28;20305;-67
2023/06/26 03:06:37;;;;;;;10.87;9.97;;;;;;;13.48;100.00;96989.59;4925166;28;20206;-67
2023/06/26 03:09:06;;;;;;;10.37;9.47;;;;;;;13.51;100.00;96985.69;4926339;28;20210;-67
2023/06/26 03:11:34;;;;;;;9.67;8.80;;;;;;;13.54;100.00;96980.78;4917406;28;20382;-68
2023/06/26 03:14:02;;;;;;;9.70;9.00;;;;;;;13.50;100.00;96976.91;4947563;28;20222;-68
2023/06/26 03:16:30;;;;;;;10.20;9.40;;;;;;;13.39;100.00;96969.50;4940050;28;20575;-67
2023/06/26 03:18:58;;;;;;;10.40;9.60;;;;;;;13.50;100.00;96984.88;4950093;28;20240;-67
2023/06/26 03:21:25;;;;;;;10.77;9.87;;;;;;;13.53;100.00;96984.47;4926170;28;20251;-68
2023/06/26 03:23:53;;;;;;;10.30;9.40;;;;;;;13.57;100.00;96979.53;4946127;28;20889;-68
2023/06/26 03:26:28;;;;;;;10.57;9.73;;;;;;;13.59;100.00;96980.13;4890480;28;20823;-69
2023/06/26 03:28:56;;;;;;;10.53;9.63;;;;;;;13.58;100.00;96989.97;4937419;28;20198;-65
2023/06/26 03:31:23;;;;;;;10.47;9.57;;;;;;;13.48;100.00;96967.47;4947820;28;20340;-68
2023/06/26 03:33:51;;;;;;;10.23;9.37;;;;;;;13.53;100.00;96981.81;4930538;28;20222;-67
2023/06/26 03:36:18;;;;;;;10.97;10.10;;;;;;;13.58;100.00;96989.97;4937214;28;20739;-67
2023/06/26 03:38:46;;;;;;;10.60;9.80;;;;;;;13.57;100.00;96979.53;4904903;28;20220;-69
2023/06/26 03:41:14;;;;;;;10.13;9.23;;;;;;;13.65;100.00;96979.34;4888264;28;20322;-66
2023/06/26 03:43:43;;;;;;;10.30;9.50;;;;;;;13.68;100.00;96978.06;4944498;28;20234;-67
2023/06/26 03:46:10;;;;;;;10.73;9.83;;;;;;;13.72;100.00;96979.28;4949405;28;20894;-65
2023/06/26 03:48:38;;;;;;;10.50;9.60;;;;;;;13.73;100.00;96975.59;4933630;28;20210;-66
2023/06/26 03:51:07;;;;;;;9.60;8.80;;;;;;;13.76;100.00;96977.84;4947777;28;20218;-66
2023/06/26 03:53:34;;;;;;;10.53;9.70;;;;;;;13.79;100.00;96976.63;4926481;28;20241;-67
2023/06/26 03:56:02;;;;;;;10.23;9.40;;;;;;;13.85;100.00;96963.28;4929954;28;20293;-64
2023/06/26 03:58:30;;;;;;;9.53;8.73;;;;;;;13.85;100.00;96968.63;4913459;28;20678;-66
2023/06/26 04:00:59;;;;;;;9.47;8.67;;;;;;;14.02;100.00;96978.78;4947973;28;20307;-70
2023/06/26 04:03:27;;;;;;;10.27;9.47;;;;;;;14.07;100.00;96981.63;4931020;28;20210;-70
2023/06/26 04:05:54;;;;;;;10.17;9.23;;;;;;;14.10;100.00;96981.22;4948278;28;20203;-71
2023/06/26 04:08:25;;;;;;;10.17;9.30;;;;;;;14.19;100.00;96984.47;4929051;28;20218;-69
2023/06/26 04:10:53;;;;;;;10.57;9.77;;;;;;;14.24;100.00;96981.97;4897590;28;20230;-71
2023/06/26 04:13:21;;;;;;;10.50;9.60;;;;;;;14.30;100.00;96983.78;4903805;28;20301;-69
2023/06/26 04:15:48;;;;;;;9.97;9.07;;;;;;;14.44;100.00;96983.72;4948859;28;20963;-69
2023/06/26 04:18:20;;;;;;;10.77;9.77;;;;;;;14.54;100.00;96976.06;4948823;28;20693;-69
2023/06/26 04:21:06;;;;;;;9.90;9.10;;;;;;;14.72;100.00;96983.38;4932028;28;20223;-69
2023/06/26 04:23:34;;;;;;;10.63;9.77;;;;;;;14.75;100.00;96977.63;4918018;28;20217;-68
2023/06/26 04:26:04;;;;;;;12.13;11.13;;;;;;;14.52;100.00;96971.97;4955462;28;20225;-68
2023/06/26 04:28:32;;;;;;;10.70;9.80;;;;;;;14.69;100.00;96972.28;4879139;28;20207;-68
2023/06/26 04:31:00;;;;;;;10.20;9.43;;;;;;;14.85;100.00;96970.97;4949977;28;20317;-68
2023/06/26 04:33:29;;;;;;;10.80;9.90;;;;;;;14.87;100.00;96968.91;4951474;28;20586;-70
2023/06/26 04:35:57;;;;;;;10.53;9.60;;;;;;;14.92;100.00;96966.41;4932651;28;20360;-69
2023/06/26 04:38:25;;;;;;;10.10;9.40;;;;;;;14.74;100.00;96970.66;4942335;28;20207;-70
2023/06/26 04:40:52;;;;;;;11.47;10.57;;;;;;;14.81;100.00;96965.28;4925230;28;20337;-70
2023/06/26 04:43:20;;;;;;;10.80;9.97;;;;;;;15.05;100.00;96960.97;4910211;28;20213;-68
2023/06/26 04:45:48;;;;;;;10.70;9.70;;;;;;;15.33;100.00;96970.34;4933602;28;20206;-68
2023/06/26 04:48:16;;;;;;;11.20;10.20;;;;;;;15.45;100.00;96967.00;4953919;28;20202;-69
2023/06/26 04:50:53;;;;;;;10.17;9.47;;;;;;;15.57;100.00;96965.22;4920710;28;20371;-69
2023/06/26 04:53:21;;;;;;;10.93;9.70;;;;;;;15.83;100.00;96965.13;4943859;28;20202;-70
2023/06/26 04:55:49;;;;;;;11.43;10.53;;;;;;;16.03;100.00;96959.59;4900387;28;20234;-69
2023/06/26 04:58:17;;;;;;;10.33;9.53;;;;;;;16.26;100.00;96964.22;4925559;28;20753;-70
2023/06/26 05:00:45;;;;;;;10.47;9.37;;;;;;;16.46;100.00;96963.97;4911888;28;20231;-68
2023/06/26 05:03:13;;;;;;;9.83;9.03;;;;;;;16.68;100.00;96962.66;4922451;28;21618;-70
2023/06/26 05:05:41;;;;;;;10.00;9.20;;;;;;;16.85;100.00;96968.97;4925784;28;21113;-71
2023/06/26 05:08:18;;;;;;;10.20;9.40;;;;;;;16.93;100.00;96965.94;4948178;28;20305;-70
2023/06/26 05:10:45;;;;;;;9.20;8.50;;;;;;;16.92;100.00;96967.00;4949016;28;20312;-66
2023/06/26 05:13:17;;;;;;;10.10;9.40;;;;;;;17.02;100.00;96960.28;4902139;28;20238;-71
2023/06/26 05:15:45;;;;;;;10.27;9.47;;;;;;;17.32;100.00;96970.91;4907245;28;20350;-69
2023/06/26 05:18:13;;;;;;;10.03;9.33;;;;;;;17.30;100.00;96956.94;4952084;28;20218;-70
2023/06/26 05:20:41;;;;;;;10.33;9.53;;;;;;;17.53;100.00;96960.66;4929274;28;20678;-68
2023/06/26 05:23:09;;;;;;;9.57;8.77;;;;;;;17.61;100.00;96952.25;4945483;28;20325;-69
2023/06/26 05:25:38;;;;;;;9.93;9.13;;;;;;;17.60;100.00;96961.34;4952744;28;20229;-68
2023/06/26 05:28:08;;;;;;;11.50;10.50;;;;;;;17.86;100.00;96958.41;4902810;28;20206;-70
2023/06/26 05:30:36;;;;;;;9.60;8.90;;;;;;;17.92;100.00;96960.13;4880525;28;20245;-67
2023/06/26 05:33:05;;;;;;;9.70;8.80;;;;;;;18.16;100.00;96960.09;4933552;28;20672;-71
2023/06/26 05:35:34;;;;;;;10.80;9.80;;;;;;;18.25;100.00;96957.84;4947738;28;21309;-69
2023/06/26 05:38:02;;;;;;;9.67;8.90;;;;;;;18.39;100.00;96959.22;4951603;28;20210;-68
2023/06/26 05:40:30;;;;;;;9.57;8.87;;;;;;;18.32;100.00;96959.34;4939561;28;20249;-68
2023/06/26 05:43:00;;;;;;;11.73;10.60;;;;;;;18.30;100.00;96956.09;4923795;28;20531;-68
2023/06/26 05:45:27;;;;;;;12.13;11.23;;;;;;;18.54;100.00;96939.88;4920766;28;20298;-72
2023/06/26 05:47:55;;;;;;;11.27;10.40;;;;;;;18.30;100.00;96956.09;4897501;28;20212;-70
2023/06/26 05:50:23;;;;;;;11.80;10.90;;;;;;;18.18;100.00;96950.75;4949403;28;20228;-71
2023/06/26 05:52:51;;;;;;;10.67;9.80;;;;;;;18.46;100.00;96962.56;4927097;28;20296;-69
2023/06/26 05:55:20;;;;;;;10.10;9.40;;;;;;;18.63;100.00;96953.72;4945163;28;20253;-69
2023/06/26 05:57:48;;;;;;;10.90;10.10;;;;;;;18.96;100.00;96957.50;4926717;28;20337;-69
2023/06/26 06:00:18;;;;;;;11.73;10.73;;;;;;;19.01;100.00;96954.13;4925870;28;20399;-70
2023/06/26 06:02:46;;;;;;;12.37;11.37;;;;;;;19.24;100.00;96955.81;4911376;28;21009;-69
2023/06/26 06:05:14;;;;;;;10.03;9.23;;;;;;;19.42;100.00;96961.97;4929667;28;20594;-70
2023/06/26 06:07:41;;;;;;;9.53;8.77;;;;;;;19.53;100.00;96955.69;4933298;28;20877;-70
2023/06/26 06:10:10;;;;;;;10.13;9.33;;;;;;;19.56;100.00;96946.31;4951284;28;20206;-69
2023/06/26 06:12:37;;;;;;;10.17;9.40;;;;;;;19.63;100.00;96953.16;4936603;28;20266;-69
2023/06/26 06:15:06;;;;;;;10.70;9.43;;;;;;;19.81;100.00;96945.84;4901248;28;20229;-69
2023/06/26 06:17:35;;;;;;;11.23;10.23;;;;;;;19.94;100.00;96950.88;4912514;28;20896;-69
2023/06/26 06:20:04;;;;;;;9.10;8.40;;;;;;;19.98;100.00;96942.31;4951553;28;20593;-70
2023/06/26 06:22:31;;;;;;;9.97;9.17;;;;;;;20.05;100.00;96951.00;4925791;28;20238;-69
2023/06/26 06:25:00;;;;;;;9.00;8.30;;;;;;;20.23;100.00;96947.97;4950486;28;20244;-69
2023/06/26 06:27:28;;;;;;;9.30;8.60;;;;;;;20.27;100.00;96950.97;4936716;28;20901;-70
2023/06/26 06:29:55;;;;;;;9.60;8.80;;;;;;;20.32;100.00;96944.84;4898258;28;20234;-68
2023/06/26 06:32:23;;;;;;;9.33;8.63;;;;;;;20.41;100.00;96951.41;4926510;28;20277;-69
2023/06/26 06:34:53;;;;;;;9.47;8.67;;;;;;;20.71;100.00;96944.69;4941078;28;20221;-71
2023/06/26 06:37:20;;;;;;;9.30;8.50;;;;;;;20.87;100.00;96945.69;4947271;28;20298;-71
2023/06/26 06:39:48;;;;;;;9.07;8.47;;;;;;;21.04;100.00;96947.41;4921487;28;21482;-70
2023/06/26 06:42:15;;;;;;;9.47;8.50;;;;;;;21.17;100.00;96949.66;4945969;28;20868;-72
2023/06/26 06:44:43;;;;;;;9.20;8.53;;;;;;;21.17;100.00;96951.56;4918254;28;20213;-69
2023/06/26 06:47:10;;;;;;;8.77;8.00;;;;;;;21.19;100.00;96930.56;4928204;28;20260;-69
2023/06/26 06:49:38;;;;;;;8.57;7.97;;;;;;;21.34;100.00;96954.09;4913851;28;20753;-69
2023/06/26 06:52:07;;;;;;;8.30;7.70;;;;;;;21.61;100.00;96954.00;4950829;28;20305;-68
2023/06/26 06:54:52;;;;;;;8.73;8.13;;;;;;;21.54;100.00;96951.50;4914232;28;20904;-69
2023/06/26 06:57:20;;;;;;;8.60;8.00;;;;;;;21.58;100.00;96949.13;4944098;28;20280;-71
2023/06/26 06:59:48;;;;;;;8.17;7.67;;;;;;;21.62;100.00;96944.03;4923091;28;20226;-69
2023/06/26 07:02:18;;;;;;;8.13;7.53;;;;;;;21.90;100.00;96950.09;4927625;28;20289;-71
2023/06/26 07:04:45;;;;;;;8.77;8.10;;;;;;;22.05;100.00;96943.97;4914300;28;20240;-69
2023/06/26 07:07:14;;;;;;;8.73;8.03;;;;;;;22.07;100.00;96947.22;4941135;28;20319;-71
2023/06/26 07:09:42;;;;;;;8.00;7.33;;;;;;;22.14;100.00;96938.88;4926359;28;20297;-68
2023/06/26 07:12:09;;;;;;;8.80;8.10;;;;;;;22.34;100.00;96936.22;4912439;28;20321;-69
2023/06/26 07:14:37;;;;;;;10.00;9.30;;;;;;;22.43;96.65;96933.03;4917777;28;20277;-69
2023/06/26 07:17:05;;;;;;;9.03;8.33;;;;;;;22.36;92.12;96917.06;4919896;28;20227;-68
2023/06/26 07:19:32;;;;;;;8.07;7.50;;;;;;;22.45;91.16;96930.88;4911418;28;20312;-70
2023/06/26 07:22:00;;;;;;;7.53;6.90;;;;;;;22.57;90.38;96934.16;4950988;28;20257;-70
2023/06/26 07:24:29;;;;;;;7.60;7.00;;;;;;;22.60;90.93;96930.91;4937582;28;20211;-70
2023/06/26 07:26:57;;;;;;;8.23;7.47;;;;;;;22.71;94.28;96931.72;4923342;28;20219;-70
2023/06/26 07:29:24;;;;;;;8.10;7.50;;;;;;;22.83;94.49;96929.56;4944838;28;20202;-67
2023/06/26 07:31:52;;;;;;;8.37;7.77;;;;;;;22.84;94.32;96931.19;4931579;28;20234;-71
2023/06/26 07:34:20;;;;;;;9.10;8.30;;;;;;;22.62;99.03;96930.66;4890714;28;20210;-68
2023/06/26 07:36:48;;;;;;;7.97;7.47;;;;;;;22.90;92.77;96934.72;4950061;28;20227;-70
2023/06/26 07:39:15;;;;;;;8.90;8.20;;;;;;;22.99;93.88;96935.78;4945341;28;20233;-70
2023/06/26 07:41:50;;;;;;;8.63;8.00;;;;;;;23.37;90.98;96940.09;4929737;28;20242;-71
2023/06/26 07:44:17;;;;;;;8.50;7.90;;;;;;;23.40;86.82;96943.09;4943591;28;20206;-68
2023/06/26 07:46:45;;;;;;;7.17;6.60;;;;;;;23.46;83.87;96937.66;4928656;28;20831;-69
2023/06/26 07:49:13;;;;;;;7.17;6.57;;;;;;;23.38;78.61;96931.72;4916842;28;21631;-68
2023/06/26 07:51:40;;;;;;;7.27;6.77;;;;;;;23.62;83.03;96933.03;4954801;28;20322;-69
2023/06/26 07:54:08;;;;;;;7.60;7.10;;;;;;;23.75;82.49;96937.06;4946071;28;20252;-68
2023/06/26 07:56:55;;;;;;;7.53;6.83;;;;;;;23.82;77.71;96927.53;4923329;28;20241;-70
2023/06/26 07:59:23;;;;;;;7.47;6.80;;;;;;;23.79;79.86;96932.69;4951183;28;20274;-68
2023/06/26 08:01:51;;;;;;;7.13;6.57;;;;;;;23.88;81.08;96930.25;4927616;28;20304;-70
2023/06/26 08:04:20;;;;;;;15.70;6.57;;;;;;;23.95;79.65;96928.84;4949983;28;20202;-70
2023/06/26 08:06:48;;;;;;;7.10;6.50;;;;;;;24.04;81.13;96920.16;4915097;28;20300;-71
2023/06/26 08:09:17;;;;;;;7.90;7.20;;;;;;;23.91;74.53;96918.88;4941778;28;20203;-69
2023/06/26 08:11:45;;;;;;;7.30;6.60;;;;;;;24.07;75.12;96925.84;4918772;28;20785;-69
2023/06/26 08:14:14;;;;;;;7.23;6.73;;;;;;;24.27;78.21;96919.50;4942968;28;20206;-68
2023/06/26 08:16:43;;;;;;;7.13;6.63;;;;;;;24.55;79.21;96924.47;4927136;28;21859;-67
2023/06/26 08:19:11;;;;;;;7.40;6.80;;;;;;;24.55;71.27;96924.47;4950879;28;20289;-67
2023/06/26 08:21:39;;;;;;;9.27;8.40;;;;;;;24.60;73.03;96915.53;4904573;28;20226;-68
2023/06/26 08:24:07;;;;;;;7.17;6.67;;;;;;;24.57;72.79;96916.88;4953656;28;20211;-66
2023/06/26 08:26:36;;;;;;;6.93;6.30;;;;;;;24.60;75.12;96908.19;4930708;28;20293;-66
2023/06/26 08:29:07;;;;;;;7.80;7.23;;;;;;;24.69;75.05;96914.66;4932427;28;20359;-67
2023/06/26 08:31:40;;;;;;;8.13;7.43;;;;;;;24.45;70.78;96909.13;4922433;28;20222;-66
2023/06/26 08:34:09;;;;;;;6.90;6.30;;;;;;;24.77;75.15;96915.16;4906075;28;20210;-68
2023/06/26 08:36:36;;;;;;;6.80;6.30;;;;;;;24.68;74.84;96904.09;4912216;28;20276;-69
2023/06/26 08:39:05;;;;;;;7.60;7.10;;;;;;;24.79;74.20;96907.56;4955300;28;20210;-69
2023/06/26 08:41:32;;;;;;;7.43;6.80;;;;;;;24.86;72.86;96908.03;4943230;28;20229;-69
2023/06/26 08:44:00;;;;;;;7.30;6.70;;;;;;;24.83;74.47;96904.00;4946338;28;20784;-67
2023/06/26 08:46:29;;;;;;;7.97;7.17;;;;;;;25.14;77.61;96901.00;4938080;28;20296;-68
2023/06/26 08:49:02;;;;;;;6.80;6.20;;;;;;;25.30;69.68;96906.28;4923689;28;21706;-69
2023/06/26 08:51:31;;;;;;;8.23;7.43;;;;;;;25.38;69.75;96908.38;4908757;28;20338;-67
2023/06/26 08:54:00;;;;;;;7.50;6.80;;;;;;;25.56;69.92;96903.31;4909700;28;20693;-69
2023/06/26 08:56:29;;;;;;;6.87;6.37;;;;;;;25.60;66.20;96893.53;4949436;28;20428;-69
2023/06/26 08:58:58;;;;;;;6.87;6.37;;;;;;;25.72;67.50;96902.06;4924621;28;20222;-68
2023/06/26 09:01:26;;;;;;;8.43;7.20;;;;;;;25.54;66.46;96892.78;4951146;28;20218;-69
2023/06/26 09:03:53;;;;;;;8.27;7.63;;;;;;;25.61;71.47;96894.31;4928040;28;20206;-69
2023/06/26 09:06:23;;;;;;;7.33;6.67;;;;;;;25.75;69.06;96899.88;4905530;28;20214;-69
2023/06/26 09:08:50;;;;;;;7.80;7.20;;;;;;;25.72;67.73;96896.63;4907402;28;20213;-67
2023/06/26 09:11:18;;;;;;;7.30;6.60;;;;;;;25.84;61.32;96895.41;4939547;28;20321;-68
2023/06/26 09:13:47;;;;;;;7.07;6.57;;;;;;;26.13;62.51;96891.78;4918613;28;20301;-67
2023/06/26 09:16:15;;;;;;;7.43;6.93;;;;;;;25.94;57.81;96879.00;4945727;28;20751;-68
2023/06/26 09:18:43;;;;;;;7.17;6.57;;;;;;;26.13;60.61;96886.34;4929427;28;20304;-66
2023/06/26 09:21:11;;;;;;;7.43;6.83;;;;;;;26.16;59.51;96883.09;4903700;28;20742;-68
2023/06/26 09:23:42;;;;;;;7.13;6.63;;;;;;;26.13;61.13;96879.00;4902137;28;20229;-67
2023/06/26 09:26:09;;;;;;;8.37;7.77;;;;;;;26.34;58.05;96873.31;4945488;28;20732;-70
2023/06/26 09:28:37;;;;;;;7.30;6.77;;;;;;;26.47;59.56;96871.78;4943374;28;20297;-70
2023/06/26 09:31:05;;;;;;;7.37;6.87;;;;;;;26.47;57.82;96870.94;4951273;28;20246;-68
2023/06/26 09:33:37;;;;;;;8.40;7.60;;;;;;;26.44;60.49;96875.09;4930313;28;20234;-67
2023/06/26 09:36:07;;;;;;;7.27;6.77;;;;;;;26.18;60.49;96864.59;4909195;28;20298;-68
2023/06/26 09:38:35;;;;;;;7.33;6.70;;;;;;;26.30;63.86;96862.22;4947719;28;20634;-69
2023/06/26 09:41:05;;;;;;;7.17;6.30;;;;;;;26.34;59.74;96861.66;4916344;28;20890;-69
2023/06/26 09:43:32;;;;;;;7.57;6.87;;;;;;;26.47;59.31;96863.63;4944404;28;20307;-69
2023/06/26 09:46:01;;;;;;;8.27;7.57;;;;;;;26.57;59.04;96865.38;4922293;28;20376;-67
2023/06/26 09:48:29;;;;;;;7.50;6.77;;;;;;;26.69;57.13;96873.03;4951431;28;20896;-70
2023/06/26 09:51:01;;;;;;;7.77;7.07;;;;;;;26.76;59.28;96861.81;4922160;28;20234;-70
2023/06/26 09:53:42;;;;;;;7.27;6.77;;;;;;;26.83;59.75;96867.66;4938127;28;20276;-68
2023/06/26 09:56:16;;;;;;;8.50;7.90;;;;;;;26.87;59.38;96866.81;4907337;28;20313;-70
2023/06/26 09:58:45;;;;;;;7.53;6.83;;;;;;;26.94;58.83;96869.16;4941333;28;20230;-70
2023/06/26 10:01:12;;;;;;;7.33;6.83;;;;;;;27.06;59.47;96852.34;4934823;28;20237;-69
2023/06/26 10:03:40;;;;;;;7.90;7.20;;;;;;;27.12;57.70;96853.06;4949866;28;20213;-69
2023/06/26 10:06:10;;;;;;;7.20;6.60;;;;;;;27.32;58.25;96856.50;4928598;28;20210;-70
2023/06/26 10:08:39;;;;;;;7.90;7.13;;;;;;;27.32;53.88;96851.88;4925096;28;20223;-69
2023/06/26 10:11:07;;;;;;;8.60;7.80;;;;;;;27.41;56.90;96854.69;4900931;28;20278;-71
2023/06/26 10:13:39;;;;;;;7.10;6.63;;;;;;;27.36;56.42;96850.16;4948366;28;20859;-68
2023/06/26 10:16:08;;;;;;;8.10;7.40;;;;;;;27.26;56.59;96853.06;4924878;28;20214;-69
2023/06/26 10:18:37;;;;;;;7.40;6.90;;;;;;;27.27;51.39;96854.69;4944550;28;20318;-69
2023/06/26 10:21:06;;;;;;;8.20;7.60;;;;;;;27.31;51.67;96850.25;4927962;28;20226;-70
2023/06/26 10:23:35;;;;;;;7.63;7.03;;;;;;;27.57;56.94;96847.84;4930730;28;20832;-68
2023/06/26 10:26:02;;;;;;;8.53;7.63;;;;;;;27.72;53.95;96845.94;4910094;28;20768;-70
2023/06/26 10:28:32;;;;;;;7.93;7.27;;;;;;;27.80;54.82;96834.34;4944466;28;20245;-67
2023/06/26 10:31:01;;;;;;;8.07;7.37;;;;;;;27.85;50.86;96830.72;4926998;28;20285;-70
2023/06/26 10:33:29;;;;;;;8.30;6.53;;;;;;;27.91;46.15;96825.94;4946084;28;20204;-68
2023/06/26 10:36:15;;;;;;;7.43;6.70;;;;;;;27.79;50.45;96810.97;4946832;28;20358;-68
2023/06/26 10:38:49;;;;;;;7.43;6.73;;;;;;;27.86;52.57;96814.06;4925866;28;20215;-69
2023/06/26 10:41:21;;;;;;;7.60;6.87;;;;;;;27.94;45.49;96812.53;4911327;28;20942;-70
2023/06/26 10:43:50;;;;;;;7.43;6.93;;;;;;;28.01;45.98;96820.25;4945682;28;20272;-67
2023/06/26 10:46:21;;;;;;;7.53;7.03;;;;;;;28.15;49.48;96817.53;4924508;28;20298;-69
2023/06/26 10:48:59;;;;;;;7.43;6.83;;;;;;;28.34;47.63;96811.13;4951287;28;20689;-70
2023/06/26 10:51:27;;;;;;;7.80;7.10;;;;;;;28.31;49.52;96810.63;4934483;28;20238;-69
2023/06/26 10:53:55;;;;;;;8.53;7.73;;;;;;;28.08;47.40;96807.06;4926635;28;20270;-69
2023/06/26 10:56:41;;;;;;;7.53;6.93;;;;;;;28.25;47.70;96811.06;4896735;28;21571;-69
2023/06/26 10:59:15;;;;;;;8.83;8.07;;;;;;;28.44;45.91;96816.31;4950755;28;20255;-69
2023/06/26 11:01:45;;;;;;;7.27;6.77;;;;;;;28.52;43.12;96807.38;4931997;28;20701;-70
2023/06/26 11:04:14;;;;;;;7.37;6.87;;;;;;;28.59;43.97;96805.03;4952082;28;20289;-68
2023/06/26 11:06:46;;;;;;;7.30;6.70;;;;;;;28.59;42.88;96801.50;4949680;28;20265;-68
2023/06/26 11:09:16;;;;;;;8.17;7.47;;;;;;;28.62;44.02;96800.09;4907297;28;20206;-69
2023/06/26 11:12:04;;;;;;;6.67;6.27;;;;;;;28.84;42.98;96800.06;4898220;28;20345;-69
2023/06/26 11:14:33;;;;;;;7.20;6.37;;;;;;;29.23;43.37;96797.69;4950534;28;20199;-70
2023/06/26 11:17:05;;;;;;;7.53;6.93;;;;;;;29.24;41.51;96793.84;4928790;28;20268;-69
2023/06/26 11:19:32;;;;;;;8.50;7.80;;;;;;;29.18;41.67;96797.84;4951521;28;20352;-69
2023/06/26 11:22:03;;;;;;;7.60;6.90;;;;;;;29.20;42.99;96789.31;4917488;28;20245;-68
2023/06/26 11:24:32;;;;;;;7.93;7.33;;;;;;;29.15;41.11;96782.06;4911394;28;20214;-68
2023/06/26 11:27:06;;;;;;;7.27;6.77;;;;;;;28.89;43.58;96780.06;4902318;28;20352;-69
2023/06/26 11:29:34;;;;;;;8.10;7.40;;;;;;;29.26;45.27;96775.22;4916644;28;20211;-68
2023/06/26 11:32:06;;;;;;;7.60;6.90;;;;;;;29.38;42.24;96774.63;4930086;28;20245;-69
2023/06/26 11:34:34;;;;;;;7.93;7.17;;;;;;;29.74;44.20;96761.88;4944010;28;20215;-69